sensor_id;sensor_type;location;lat;lon;timestamp;P1;durP1;ratioP1;P2;durP2;ratioP2
9842;SDS011;4960;48.736;9.108;2022-10-04T00:01:00;14.33;;;8.30;;
9842;SDS011;4960;48.736;9.108;2022-10-04T00:03:29;11.33;;;8.17;;
9842;SDS011;4960;48.736;9.108;2022-10-04T00:06:00;14.63;;;8.20;;
9842;SDS011;4960;48.736;9.108;2022-10-04T00:08:29;11.07;;;7.70;;
9842;SDS011;4960;48.736;9.108;2022-10-04T00:11:03;10.80;;;8.50;;
9842;SDS011;4960;48.736;9.108;2022-10-04T00:13:30;9.47;;;7.33;;
9842;SDS011;4960;48.736;9.108;2022-10-04T00:16:00;14.83;;;8.07;;
9842;SDS011;4960;48.736;9.108;2022-10-04T00:18:28;12.37;;;8.13;;
9842;SDS011;4960;48.736;9.108;2022-10-04T00:21:01;12.43;;;7.80;;
9842;SDS011;4960;48.736;9.108;2022-10-04T00:23:29;15.43;;;8.13;;
9842;SDS011;4960;48.736;9.108;2022-10-04T00:26:08;10.60;;;7.67;;
9842;SDS011;4960;48.736;9.108;2022-10-04T00:28:43;11.67;;;7.40;;
9842;SDS011;4960;48.736;9.108;2022-10-04T00:31:16;10.93;;;7.83;;
9842;SDS011;4960;48.736;9.108;2022-10-04T00:33:44;11.33;;;7.53;;
9842;SDS011;4960;48.736;9.108;2022-10-04T00:39:25;10.03;;;7.57;;
9842;SDS011;4960;48.736;9.108;2022-10-04T00:41:56;11.27;;;7.30;;
9842;SDS011;4960;48.736;9.108;2022-10-04T00:44:27;12.03;;;7.27;;
9842;SDS011;4960;48.736;9.108;2022-10-04T00:46:57;9.27;;;6.90;;
9842;SDS011;4960;48.736;9.108;2022-10-04T00:49:27;12.87;;;7.60;;
9842;SDS011;4960;48.736;9.108;2022-10-04T00:51:56;13.00;;;7.20;;
9842;SDS011;4960;48.736;9.108;2022-10-04T00:54:26;13.40;;;7.67;;
9842;SDS011;4960;48.736;9.108;2022-10-04T00:56:55;12.57;;;7.57;;
9842;SDS011;4960;48.736;9.108;2022-10-04T00:59:25;13.53;;;7.47;;
9842;SDS011;4960;48.736;9.108;2022-10-04T01:01:55;10.73;;;7.00;;
9842;SDS011;4960;48.736;9.108;2022-10-04T01:04:27;9.70;;;6.77;;
9842;SDS011;4960;48.736;9.108;2022-10-04T01:06:56;9.60;;;6.80;;
9842;SDS011;4960;48.736;9.108;2022-10-04T01:09:24;10.03;;;6.97;;
9842;SDS011;4960;48.736;9.108;2022-10-04T01:11:55;12.93;;;6.80;;
9842;SDS011;4960;48.736;9.108;2022-10-04T01:14:25;9.47;;;6.33;;
9842;SDS011;4960;48.736;9.108;2022-10-04T01:16:55;10.33;;;6.47;;
9842;SDS011;4960;48.736;9.108;2022-10-04T01:19:25;14.30;;;6.83;;
9842;SDS011;4960;48.736;9.108;2022-10-04T01:22:09;11.63;;;7.57;;
9842;SDS011;4960;48.736;9.108;2022-10-04T01:24:39;8.70;;;6.97;;
9842;SDS011;4960;48.736;9.108;2022-10-04T01:29:48;9.50;;;7.13;;
9842;SDS011;4960;48.736;9.108;2022-10-04T01:32:15;8.23;;;6.80;;
9842;SDS011;4960;48.736;9.108;2022-10-04T01:34:43;12.57;;;7.17;;
9842;SDS011;4960;48.736;9.108;2022-10-04T01:37:10;12.07;;;7.50;;
9842;SDS011;4960;48.736;9.108;2022-10-04T01:39:39;9.73;;;6.90;;
9842;SDS011;4960;48.736;9.108;2022-10-04T01:42:08;10.47;;;7.13;;
9842;SDS011;4960;48.736;9.108;2022-10-04T01:44:37;8.47;;;6.93;;
9842;SDS011;4960;48.736;9.108;2022-10-04T01:47:07;11.13;;;7.63;;
9842;SDS011;4960;48.736;9.108;2022-10-04T01:49:35;8.73;;;6.30;;
9842;SDS011;4960;48.736;9.108;2022-10-04T01:52:05;8.37;;;6.83;;
9842;SDS011;4960;48.736;9.108;2022-10-04T01:54:34;10.83;;;6.83;;
9842;SDS011;4960;48.736;9.108;2022-10-04T01:57:05;10.30;;;7.00;;
9842;SDS011;4960;48.736;9.108;2022-10-04T01:59:34;8.87;;;6.70;;
9842;SDS011;4960;48.736;9.108;2022-10-04T02:02:04;10.47;;;6.50;;
9842;SDS011;4960;48.736;9.108;2022-10-04T02:04:33;9.60;;;6.30;;
9842;SDS011;4960;48.736;9.108;2022-10-04T02:07:00;8.43;;;6.17;;
9842;SDS011;4960;48.736;9.108;2022-10-04T02:09:28;11.20;;;6.37;;
9842;SDS011;4960;48.736;9.108;2022-10-04T02:11:57;8.70;;;5.83;;
9842;SDS011;4960;48.736;9.108;2022-10-04T02:14:27;9.30;;;6.03;;
9842;SDS011;4960;48.736;9.108;2022-10-04T02:16:56;9.23;;;6.37;;
9842;SDS011;4960;48.736;9.108;2022-10-04T02:19:24;8.77;;;6.23;;
9842;SDS011;4960;48.736;9.108;2022-10-04T02:21:53;8.97;;;6.10;;
9842;SDS011;4960;48.736;9.108;2022-10-04T02:24:21;9.80;;;6.13;;
9842;SDS011;4960;48.736;9.108;2022-10-04T02:26:49;9.97;;;6.33;;
9842;SDS011;4960;48.736;9.108;2022-10-04T02:29:16;8.27;;;5.77;;
9842;SDS011;4960;48.736;9.108;2022-10-04T02:31:45;6.80;;;6.10;;
9842;SDS011;4960;48.736;9.108;2022-10-04T02:34:31;7.60;;;5.60;;
9842;SDS011;4960;48.736;9.108;2022-10-04T02:36:59;10.43;;;6.17;;
9842;SDS011;4960;48.736;9.108;2022-10-04T02:39:28;11.20;;;5.50;;
9842;SDS011;4960;48.736;9.108;2022-10-04T02:41:58;10.87;;;6.27;;
9842;SDS011;4960;48.736;9.108;2022-10-04T02:44:28;8.77;;;6.17;;
9842;SDS011;4960;48.736;9.108;2022-10-04T02:47:02;6.07;;;5.47;;
9842;SDS011;4960;48.736;9.108;2022-10-04T02:49:33;7.43;;;6.07;;
9842;SDS011;4960;48.736;9.108;2022-10-04T02:52:02;7.20;;;5.57;;
9842;SDS011;4960;48.736;9.108;2022-10-04T02:54:32;7.60;;;5.07;;
9842;SDS011;4960;48.736;9.108;2022-10-04T02:57:02;8.33;;;5.53;;
9842;SDS011;4960;48.736;9.108;2022-10-04T02:59:30;8.40;;;5.90;;
9842;SDS011;4960;48.736;9.108;2022-10-04T03:02:00;10.57;;;6.00;;
9842;SDS011;4960;48.736;9.108;2022-10-04T03:04:28;8.03;;;5.77;;
9842;SDS011;4960;48.736;9.108;2022-10-04T03:06:57;8.67;;;6.00;;
9842;SDS011;4960;48.736;9.108;2022-10-04T03:09:25;9.63;;;6.07;;
9842;SDS011;4960;48.736;9.108;2022-10-04T03:11:53;6.40;;;5.80;;
9842;SDS011;4960;48.736;9.108;2022-10-04T03:14:21;7.33;;;5.73;;
9842;SDS011;4960;48.736;9.108;2022-10-04T03:16:49;7.40;;;5.40;;
9842;SDS011;4960;48.736;9.108;2022-10-04T03:19:19;9.43;;;5.70;;
9842;SDS011;4960;48.736;9.108;2022-10-04T03:21:48;9.10;;;5.67;;
9842;SDS011;4960;48.736;9.108;2022-10-04T03:24:16;9.53;;;6.00;;
9842;SDS011;4960;48.736;9.108;2022-10-04T03:26:45;9.70;;;6.07;;
9842;SDS011;4960;48.736;9.108;2022-10-04T03:29:13;9.07;;;5.73;;
9842;SDS011;4960;48.736;9.108;2022-10-04T03:31:41;10.97;;;5.40;;
9842;SDS011;4960;48.736;9.108;2022-10-04T03:34:12;7.60;;;5.93;;
9842;SDS011;4960;48.736;9.108;2022-10-04T03:36:41;7.50;;;5.60;;
9842;SDS011;4960;48.736;9.108;2022-10-04T03:39:09;9.27;;;6.13;;
9842;SDS011;4960;48.736;9.108;2022-10-04T03:41:37;9.43;;;6.30;;
9842;SDS011;4960;48.736;9.108;2022-10-04T03:44:05;9.60;;;6.83;;
9842;SDS011;4960;48.736;9.108;2022-10-04T03:46:33;8.87;;;7.07;;
9842;SDS011;4960;48.736;9.108;2022-10-04T03:49:01;8.90;;;7.57;;
9842;SDS011;4960;48.736;9.108;2022-10-04T03:51:29;12.30;;;7.53;;
9842;SDS011;4960;48.736;9.108;2022-10-04T03:53:58;17.40;;;6.97;;
9842;SDS011;4960;48.736;9.108;2022-10-04T03:56:28;10.53;;;6.63;;
9842;SDS011;4960;48.736;9.108;2022-10-04T03:58:56;8.97;;;6.77;;
9842;SDS011;4960;48.736;9.108;2022-10-04T04:01:26;9.03;;;6.10;;
9842;SDS011;4960;48.736;9.108;2022-10-04T04:04:00;7.40;;;6.00;;
9842;SDS011;4960;48.736;9.108;2022-10-04T04:06:29;8.57;;;5.97;;
9842;SDS011;4960;48.736;9.108;2022-10-04T04:08:59;7.40;;;5.93;;
9842;SDS011;4960;48.736;9.108;2022-10-04T04:11:27;8.07;;;6.00;;
9842;SDS011;4960;48.736;9.108;2022-10-04T04:13:57;7.00;;;5.97;;
9842;SDS011;4960;48.736;9.108;2022-10-04T04:16:25;8.63;;;5.87;;
9842;SDS011;4960;48.736;9.108;2022-10-04T04:18:53;10.47;;;5.67;;
9842;SDS011;4960;48.736;9.108;2022-10-04T04:21:21;8.83;;;5.60;;
9842;SDS011;4960;48.736;9.108;2022-10-04T04:23:50;7.73;;;5.43;;
9842;SDS011;4960;48.736;9.108;2022-10-04T04:26:22;6.87;;;5.27;;
9842;SDS011;4960;48.736;9.108;2022-10-04T04:28:51;7.93;;;5.50;;
9842;SDS011;4960;48.736;9.108;2022-10-04T04:31:19;9.33;;;6.00;;
9842;SDS011;4960;48.736;9.108;2022-10-04T04:33:50;9.03;;;5.30;;
9842;SDS011;4960;48.736;9.108;2022-10-04T04:36:20;8.30;;;5.63;;
9842;SDS011;4960;48.736;9.108;2022-10-04T04:38:47;12.67;;;5.83;;
9842;SDS011;4960;48.736;9.108;2022-10-04T04:41:34;12.67;;;6.00;;
9842;SDS011;4960;48.736;9.108;2022-10-04T04:44:01;8.53;;;5.90;;
9842;SDS011;4960;48.736;9.108;2022-10-04T04:46:29;13.60;;;6.43;;
9842;SDS011;4960;48.736;9.108;2022-10-04T04:48:57;8.67;;;6.60;;
9842;SDS011;4960;48.736;9.108;2022-10-04T04:51:26;7.87;;;6.20;;
9842;SDS011;4960;48.736;9.108;2022-10-04T04:53:54;8.23;;;5.87;;
9842;SDS011;4960;48.736;9.108;2022-10-04T04:56:22;9.40;;;5.37;;
9842;SDS011;4960;48.736;9.108;2022-10-04T04:58:52;10.10;;;5.47;;
9842;SDS011;4960;48.736;9.108;2022-10-04T05:01:23;7.87;;;5.97;;
9842;SDS011;4960;48.736;9.108;2022-10-04T05:04:00;10.50;;;5.30;;
9842;SDS011;4960;48.736;9.108;2022-10-04T05:06:28;11.57;;;6.30;;
9842;SDS011;4960;48.736;9.108;2022-10-04T05:08:55;6.97;;;5.10;;
9842;SDS011;4960;48.736;9.108;2022-10-04T05:11:24;9.03;;;5.70;;
9842;SDS011;4960;48.736;9.108;2022-10-04T05:13:55;9.27;;;5.93;;
9842;SDS011;4960;48.736;9.108;2022-10-04T05:16:25;8.60;;;6.07;;
9842;SDS011;4960;48.736;9.108;2022-10-04T05:18:53;8.90;;;5.57;;
9842;SDS011;4960;48.736;9.108;2022-10-04T05:21:24;10.80;;;5.50;;
9842;SDS011;4960;48.736;9.108;2022-10-04T05:23:53;10.17;;;5.77;;
9842;SDS011;4960;48.736;9.108;2022-10-04T05:26:23;7.40;;;5.20;;
9842;SDS011;4960;48.736;9.108;2022-10-04T05:28:50;9.47;;;6.07;;
9842;SDS011;4960;48.736;9.108;2022-10-04T05:31:23;10.27;;;5.97;;
9842;SDS011;4960;48.736;9.108;2022-10-04T05:33:53;6.23;;;5.47;;
9842;SDS011;4960;48.736;9.108;2022-10-04T05:36:36;11.17;;;6.13;;
9842;SDS011;4960;48.736;9.108;2022-10-04T05:39:08;13.60;;;5.73;;
9842;SDS011;4960;48.736;9.108;2022-10-04T05:41:38;8.73;;;6.10;;
9842;SDS011;4960;48.736;9.108;2022-10-04T05:46:52;8.80;;;6.10;;
9842;SDS011;4960;48.736;9.108;2022-10-04T05:49:20;10.43;;;6.10;;
9842;SDS011;4960;48.736;9.108;2022-10-04T05:51:50;11.87;;;6.07;;
9842;SDS011;4960;48.736;9.108;2022-10-04T05:54:19;10.10;;;6.33;;
9842;SDS011;4960;48.736;9.108;2022-10-04T05:57:00;14.10;;;7.10;;
9842;SDS011;4960;48.736;9.108;2022-10-04T05:59:40;11.60;;;7.17;;
9842;SDS011;4960;48.736;9.108;2022-10-04T06:02:16;11.55;;;6.95;;
9842;SDS011;4960;48.736;9.108;2022-10-04T06:04:48;10.57;;;6.83;;
9842;SDS011;4960;48.736;9.108;2022-10-04T06:07:21;16.63;;;7.07;;
9842;SDS011;4960;48.736;9.108;2022-10-04T06:09:54;14.57;;;8.27;;
9842;SDS011;4960;48.736;9.108;2022-10-04T06:12:25;15.80;;;7.47;;
9842;SDS011;4960;48.736;9.108;2022-10-04T06:17:50;10.33;;;7.60;;
9842;SDS011;4960;48.736;9.108;2022-10-04T06:23:14;10.47;;;7.40;;
9842;SDS011;4960;48.736;9.108;2022-10-04T06:25:43;12.23;;;6.77;;
9842;SDS011;4960;48.736;9.108;2022-10-04T06:28:14;10.53;;;6.77;;
9842;SDS011;4960;48.736;9.108;2022-10-04T06:30:48;7.43;;;6.53;;
9842;SDS011;4960;48.736;9.108;2022-10-04T06:33:27;10.20;;;6.43;;
9842;SDS011;4960;48.736;9.108;2022-10-04T06:36:08;8.93;;;6.33;;
9842;SDS011;4960;48.736;9.108;2022-10-04T06:38:57;8.70;;;6.57;;
9842;SDS011;4960;48.736;9.108;2022-10-04T06:44:23;14.70;;;6.53;;
9842;SDS011;4960;48.736;9.108;2022-10-04T06:46:57;9.60;;;6.43;;
9842;SDS011;4960;48.736;9.108;2022-10-04T06:49:30;14.20;;;7.07;;
9842;SDS011;4960;48.736;9.108;2022-10-04T06:52:07;7.53;;;5.90;;
9842;SDS011;4960;48.736;9.108;2022-10-04T06:54:45;10.53;;;5.83;;
9842;SDS011;4960;48.736;9.108;2022-10-04T06:57:25;7.60;;;5.23;;
9842;SDS011;4960;48.736;9.108;2022-10-04T07:00:00;8.83;;;5.87;;
9842;SDS011;4960;48.736;9.108;2022-10-04T07:02:31;9.93;;;5.60;;
9842;SDS011;4960;48.736;9.108;2022-10-04T07:05:02;8.80;;;5.23;;
9842;SDS011;4960;48.736;9.108;2022-10-04T07:07:31;12.17;;;5.20;;
9842;SDS011;4960;48.736;9.108;2022-10-04T07:10:02;11.47;;;5.00;;
9842;SDS011;4960;48.736;9.108;2022-10-04T07:12:32;8.33;;;3.87;;
9842;SDS011;4960;48.736;9.108;2022-10-04T07:15:01;5.93;;;4.00;;
9842;SDS011;4960;48.736;9.108;2022-10-04T07:17:29;6.87;;;4.33;;
9842;SDS011;4960;48.736;9.108;2022-10-04T07:19:58;5.00;;;4.13;;
9842;SDS011;4960;48.736;9.108;2022-10-04T07:22:29;11.03;;;4.30;;
9842;SDS011;4960;48.736;9.108;2022-10-04T07:25:01;10.67;;;4.80;;
9842;SDS011;4960;48.736;9.108;2022-10-04T07:27:31;6.93;;;5.07;;
9842;SDS011;4960;48.736;9.108;2022-10-04T07:30:00;7.83;;;4.77;;
9842;SDS011;4960;48.736;9.108;2022-10-04T07:32:29;8.20;;;5.10;;
9842;SDS011;4960;48.736;9.108;2022-10-04T07:34:58;5.60;;;4.93;;
9842;SDS011;4960;48.736;9.108;2022-10-04T07:37:29;8.40;;;4.73;;
9842;SDS011;4960;48.736;9.108;2022-10-04T07:40:00;6.57;;;4.43;;
9842;SDS011;4960;48.736;9.108;2022-10-04T07:42:28;7.47;;;5.07;;
9842;SDS011;4960;48.736;9.108;2022-10-04T07:44:59;9.73;;;5.10;;
9842;SDS011;4960;48.736;9.108;2022-10-04T07:47:29;9.47;;;4.70;;
9842;SDS011;4960;48.736;9.108;2022-10-04T07:49:57;6.93;;;4.40;;
9842;SDS011;4960;48.736;9.108;2022-10-04T07:55:15;11.43;;;4.30;;
9842;SDS011;4960;48.736;9.108;2022-10-04T07:57:46;7.07;;;4.17;;
9842;SDS011;4960;48.736;9.108;2022-10-04T08:00:16;6.17;;;3.80;;
9842;SDS011;4960;48.736;9.108;2022-10-04T08:02:46;7.00;;;4.20;;
9842;SDS011;4960;48.736;9.108;2022-10-04T08:05:18;11.27;;;4.47;;
9842;SDS011;4960;48.736;9.108;2022-10-04T08:07:50;11.07;;;4.63;;
9842;SDS011;4960;48.736;9.108;2022-10-04T08:10:25;15.47;;;5.37;;
9842;SDS011;4960;48.736;9.108;2022-10-04T08:12:56;8.13;;;4.80;;
9842;SDS011;4960;48.736;9.108;2022-10-04T08:15:34;10.43;;;4.77;;
9842;SDS011;4960;48.736;9.108;2022-10-04T08:18:07;6.67;;;3.63;;
9842;SDS011;4960;48.736;9.108;2022-10-04T08:20:38;7.53;;;4.13;;
9842;SDS011;4960;48.736;9.108;2022-10-04T08:25:59;9.00;;;4.40;;
9842;SDS011;4960;48.736;9.108;2022-10-04T08:28:35;7.13;;;4.20;;
9842;SDS011;4960;48.736;9.108;2022-10-04T08:31:26;9.63;;;3.97;;
9842;SDS011;4960;48.736;9.108;2022-10-04T08:34:00;9.73;;;4.30;;
9842;SDS011;4960;48.736;9.108;2022-10-04T08:36:34;8.37;;;4.73;;
9842;SDS011;4960;48.736;9.108;2022-10-04T08:39:10;7.80;;;4.53;;
9842;SDS011;4960;48.736;9.108;2022-10-04T08:50:16;11.20;;;5.00;;
9842;SDS011;4960;48.736;9.108;2022-10-04T08:53:01;9.50;;;4.90;;
9842;SDS011;4960;48.736;9.108;2022-10-04T08:58:30;4.43;;;3.30;;
9842;SDS011;4960;48.736;9.108;2022-10-04T09:01:13;4.53;;;3.10;;
9842;SDS011;4960;48.736;9.108;2022-10-04T09:03:57;6.63;;;2.93;;
9842;SDS011;4960;48.736;9.108;2022-10-04T09:14:52;9.83;;;2.87;;
9842;SDS011;4960;48.736;9.108;2022-10-04T09:17:22;6.97;;;2.50;;
9842;SDS011;4960;48.736;9.108;2022-10-04T09:20:00;6.90;;;3.27;;
9842;SDS011;4960;48.736;9.108;2022-10-04T09:22:35;5.07;;;3.00;;
9842;SDS011;4960;48.736;9.108;2022-10-04T09:25:21;4.63;;;2.70;;
9842;SDS011;4960;48.736;9.108;2022-10-04T09:28:08;4.57;;;2.50;;
9842;SDS011;4960;48.736;9.108;2022-10-04T09:30:44;6.47;;;2.73;;
9842;SDS011;4960;48.736;9.108;2022-10-04T09:33:20;5.20;;;2.47;;
9842;SDS011;4960;48.736;9.108;2022-10-04T09:38:43;6.13;;;2.23;;
9842;SDS011;4960;48.736;9.108;2022-10-04T09:44:18;3.70;;;2.50;;
9842;SDS011;4960;48.736;9.108;2022-10-04T09:46:58;6.93;;;2.60;;
9842;SDS011;4960;48.736;9.108;2022-10-04T09:49:39;3.83;;;2.33;;
9842;SDS011;4960;48.736;9.108;2022-10-04T09:52:18;4.07;;;2.20;;
9842;SDS011;4960;48.736;9.108;2022-10-04T09:54:55;4.33;;;2.20;;
9842;SDS011;4960;48.736;9.108;2022-10-04T09:57:32;8.23;;;2.47;;
9842;SDS011;4960;48.736;9.108;2022-10-04T10:00:09;7.30;;;2.63;;
9842;SDS011;4960;48.736;9.108;2022-10-04T10:08:17;6.30;;;2.90;;
9842;SDS011;4960;48.736;9.108;2022-10-04T10:10:50;5.00;;;2.27;;
9842;SDS011;4960;48.736;9.108;2022-10-04T10:13:53;4.43;;;2.40;;
9842;SDS011;4960;48.736;9.108;2022-10-04T10:16:28;6.00;;;1.97;;
9842;SDS011;4960;48.736;9.108;2022-10-04T10:19:02;4.73;;;2.10;;
9842;SDS011;4960;48.736;9.108;2022-10-04T10:21:40;3.07;;;2.07;;
9842;SDS011;4960;48.736;9.108;2022-10-04T10:24:19;6.37;;;2.30;;
9842;SDS011;4960;48.736;9.108;2022-10-04T10:26:53;3.67;;;2.20;;
9842;SDS011;4960;48.736;9.108;2022-10-04T10:29:38;6.63;;;2.50;;
9842;SDS011;4960;48.736;9.108;2022-10-04T10:32:13;3.73;;;1.83;;
9842;SDS011;4960;48.736;9.108;2022-10-04T10:34:58;3.77;;;2.00;;
9842;SDS011;4960;48.736;9.108;2022-10-04T10:37:31;3.97;;;1.97;;
9842;SDS011;4960;48.736;9.108;2022-10-04T10:40:11;2.90;;;2.03;;
9842;SDS011;4960;48.736;9.108;2022-10-04T10:45:35;3.37;;;2.00;;
9842;SDS011;4960;48.736;9.108;2022-10-04T10:48:11;2.70;;;1.90;;
9842;SDS011;4960;48.736;9.108;2022-10-04T10:50:59;7.27;;;2.07;;
9842;SDS011;4960;48.736;9.108;2022-10-04T10:56:23;3.23;;;2.03;;
9842;SDS011;4960;48.736;9.108;2022-10-04T11:04:33;3.33;;;1.97;;
9842;SDS011;4960;48.736;9.108;2022-10-04T11:07:23;4.23;;;1.80;;
9842;SDS011;4960;48.736;9.108;2022-10-04T11:10:10;3.30;;;1.60;;
9842;SDS011;4960;48.736;9.108;2022-10-04T11:12:59;4.60;;;1.73;;
9842;SDS011;4960;48.736;9.108;2022-10-04T11:15:49;6.17;;;1.83;;
9842;SDS011;4960;48.736;9.108;2022-10-04T11:21:22;3.13;;;2.23;;
9842;SDS011;4960;48.736;9.108;2022-10-04T11:24:17;4.70;;;1.80;;
9842;SDS011;4960;48.736;9.108;2022-10-04T11:29:38;2.63;;;1.77;;
9842;SDS011;4960;48.736;9.108;2022-10-04T11:37:42;3.33;;;1.80;;
9842;SDS011;4960;48.736;9.108;2022-10-04T11:40:17;5.53;;;1.97;;
9842;SDS011;4960;48.736;9.108;2022-10-04T11:42:56;5.80;;;1.57;;
9842;SDS011;4960;48.736;9.108;2022-10-04T11:45:31;3.47;;;1.77;;
9842;SDS011;4960;48.736;9.108;2022-10-04T11:48:07;2.37;;;1.63;;
9842;SDS011;4960;48.736;9.108;2022-10-04T11:50:42;3.40;;;1.70;;
9842;SDS011;4960;48.736;9.108;2022-10-04T11:53:37;6.03;;;2.03;;
9842;SDS011;4960;48.736;9.108;2022-10-04T11:56:17;5.73;;;2.10;;
9842;SDS011;4960;48.736;9.108;2022-10-04T11:58:51;3.57;;;1.97;;
9842;SDS011;4960;48.736;9.108;2022-10-04T12:01:35;3.27;;;1.47;;
9842;SDS011;4960;48.736;9.108;2022-10-04T12:06:56;2.77;;;1.70;;
9842;SDS011;4960;48.736;9.108;2022-10-04T12:09:27;3.77;;;1.80;;
9842;SDS011;4960;48.736;9.108;2022-10-04T12:15:03;5.00;;;1.73;;
9842;SDS011;4960;48.736;9.108;2022-10-04T12:20:23;4.47;;;1.37;;
9842;SDS011;4960;48.736;9.108;2022-10-04T12:23:02;3.30;;;1.60;;
9842;SDS011;4960;48.736;9.108;2022-10-04T12:25:50;2.40;;;1.70;;
9842;SDS011;4960;48.736;9.108;2022-10-04T12:31:07;3.57;;;1.70;;
9842;SDS011;4960;48.736;9.108;2022-10-04T12:33:40;2.20;;;1.47;;
9842;SDS011;4960;48.736;9.108;2022-10-04T12:36:17;2.97;;;1.37;;
9842;SDS011;4960;48.736;9.108;2022-10-04T12:38:52;2.13;;;1.33;;
9842;SDS011;4960;48.736;9.108;2022-10-04T12:41:24;4.57;;;1.50;;
9842;SDS011;4960;48.736;9.108;2022-10-04T12:43:58;2.33;;;1.40;;
9842;SDS011;4960;48.736;9.108;2022-10-04T12:46:30;3.37;;;1.60;;
9842;SDS011;4960;48.736;9.108;2022-10-04T12:49:05;3.60;;;1.50;;
9842;SDS011;4960;48.736;9.108;2022-10-04T12:51:41;4.00;;;1.63;;
9842;SDS011;4960;48.736;9.108;2022-10-04T12:54:26;4.20;;;1.40;;
9842;SDS011;4960;48.736;9.108;2022-10-04T12:57:00;1.77;;;1.40;;
9842;SDS011;4960;48.736;9.108;2022-10-04T12:59:34;1.67;;;1.00;;
9842;SDS011;4960;48.736;9.108;2022-10-04T13:02:06;2.77;;;1.40;;
9842;SDS011;4960;48.736;9.108;2022-10-04T13:04:35;1.30;;;1.17;;
9842;SDS011;4960;48.736;9.108;2022-10-04T13:07:09;3.80;;;1.87;;
9842;SDS011;4960;48.736;9.108;2022-10-04T13:09:44;2.90;;;1.13;;
9842;SDS011;4960;48.736;9.108;2022-10-04T13:12:17;1.70;;;0.90;;
9842;SDS011;4960;48.736;9.108;2022-10-04T13:14:52;1.13;;;0.90;;
9842;SDS011;4960;48.736;9.108;2022-10-04T13:17:30;1.13;;;0.93;;
9842;SDS011;4960;48.736;9.108;2022-10-04T13:20:02;1.33;;;1.23;;
9842;SDS011;4960;48.736;9.108;2022-10-04T13:22:42;2.27;;;1.13;;
9842;SDS011;4960;48.736;9.108;2022-10-04T13:25:15;1.43;;;0.80;;
9842;SDS011;4960;48.736;9.108;2022-10-04T13:27:45;1.13;;;1.00;;
9842;SDS011;4960;48.736;9.108;2022-10-04T13:30:15;2.90;;;0.97;;
9842;SDS011;4960;48.736;9.108;2022-10-04T13:32:49;1.23;;;0.97;;
9842;SDS011;4960;48.736;9.108;2022-10-04T13:35:19;1.27;;;1.10;;
9842;SDS011;4960;48.736;9.108;2022-10-04T13:37:54;2.33;;;0.90;;
9842;SDS011;4960;48.736;9.108;2022-10-04T13:40:30;1.33;;;1.00;;
9842;SDS011;4960;48.736;9.108;2022-10-04T13:45:53;2.00;;;1.00;;
9842;SDS011;4960;48.736;9.108;2022-10-04T13:48:27;1.77;;;1.00;;
9842;SDS011;4960;48.736;9.108;2022-10-04T13:53:41;1.57;;;1.00;;
9842;SDS011;4960;48.736;9.108;2022-10-04T13:56:48;1.50;;;0.70;;
9842;SDS011;4960;48.736;9.108;2022-10-04T13:59:21;1.90;;;1.07;;
9842;SDS011;4960;48.736;9.108;2022-10-04T14:02:18;1.83;;;1.10;;
9842;SDS011;4960;48.736;9.108;2022-10-04T14:05:00;1.23;;;0.70;;
9842;SDS011;4960;48.736;9.108;2022-10-04T14:07:35;3.40;;;0.93;;
9842;SDS011;4960;48.736;9.108;2022-10-04T14:10:21;0.73;;;0.73;;
9842;SDS011;4960;48.736;9.108;2022-10-04T14:15:46;3.13;;;1.30;;
9842;SDS011;4960;48.736;9.108;2022-10-04T14:23:54;3.53;;;1.17;;
9842;SDS011;4960;48.736;9.108;2022-10-04T14:26:38;2.13;;;1.13;;
9842;SDS011;4960;48.736;9.108;2022-10-04T14:29:16;1.90;;;1.43;;
9842;SDS011;4960;48.736;9.108;2022-10-04T14:34:54;4.67;;;2.00;;
9842;SDS011;4960;48.736;9.108;2022-10-04T14:40:26;2.93;;;1.30;;
9842;SDS011;4960;48.736;9.108;2022-10-04T14:43:01;2.80;;;1.50;;
9842;SDS011;4960;48.736;9.108;2022-10-04T14:45:31;2.10;;;1.30;;
9842;SDS011;4960;48.736;9.108;2022-10-04T14:48:20;1.87;;;1.20;;
9842;SDS011;4960;48.736;9.108;2022-10-04T14:51:00;3.80;;;1.57;;
9842;SDS011;4960;48.736;9.108;2022-10-04T14:53:31;4.10;;;1.90;;
9842;SDS011;4960;48.736;9.108;2022-10-04T14:56:11;1.90;;;1.43;;
9842;SDS011;4960;48.736;9.108;2022-10-04T14:58:48;4.00;;;1.50;;
9842;SDS011;4960;48.736;9.108;2022-10-04T15:01:20;3.67;;;1.90;;
9842;SDS011;4960;48.736;9.108;2022-10-04T15:04:00;3.93;;;1.63;;
9842;SDS011;4960;48.736;9.108;2022-10-04T15:06:37;4.20;;;2.00;;
9842;SDS011;4960;48.736;9.108;2022-10-04T15:09:28;4.17;;;2.00;;
9842;SDS011;4960;48.736;9.108;2022-10-04T15:11:57;7.17;;;2.20;;
9842;SDS011;4960;48.736;9.108;2022-10-04T15:14:33;3.87;;;2.00;;
9842;SDS011;4960;48.736;9.108;2022-10-04T15:17:03;4.47;;;1.97;;
9842;SDS011;4960;48.736;9.108;2022-10-04T15:19:31;3.10;;;1.90;;
9842;SDS011;4960;48.736;9.108;2022-10-04T16:05:29;5.67;;;2.37;;
9842;SDS011;4960;48.736;9.108;2022-10-04T16:08:16;3.87;;;2.00;;
9842;SDS011;4960;48.736;9.108;2022-10-04T16:11:02;3.27;;;2.00;;
9842;SDS011;4960;48.736;9.108;2022-10-04T16:13:53;3.83;;;1.80;;
9842;SDS011;4960;48.736;9.108;2022-10-04T16:16:38;4.77;;;2.27;;
9842;SDS011;4960;48.736;9.108;2022-10-04T16:19:10;2.73;;;1.87;;
9842;SDS011;4960;48.736;9.108;2022-10-04T16:21:43;5.30;;;2.30;;
9842;SDS011;4960;48.736;9.108;2022-10-04T16:24:25;5.73;;;2.30;;
9842;SDS011;4960;48.736;9.108;2022-10-04T16:27:12;5.90;;;2.17;;
9842;SDS011;4960;48.736;9.108;2022-10-04T16:29:45;3.30;;;1.83;;
9842;SDS011;4960;48.736;9.108;2022-10-04T16:32:16;5.47;;;2.07;;
9842;SDS011;4960;48.736;9.108;2022-10-04T16:34:46;5.47;;;2.07;;
9842;SDS011;4960;48.736;9.108;2022-10-04T16:37:27;7.10;;;2.07;;
9842;SDS011;4960;48.736;9.108;2022-10-04T16:39:57;6.07;;;2.00;;
9842;SDS011;4960;48.736;9.108;2022-10-04T16:42:27;4.17;;;2.00;;
9842;SDS011;4960;48.736;9.108;2022-10-04T16:44:58;2.83;;;2.00;;
9842;SDS011;4960;48.736;9.108;2022-10-04T16:47:28;2.90;;;2.23;;
9842;SDS011;4960;48.736;9.108;2022-10-04T16:49:57;3.83;;;2.33;;
9842;SDS011;4960;48.736;9.108;2022-10-04T16:52:29;5.77;;;2.67;;
9842;SDS011;4960;48.736;9.108;2022-10-04T16:55:13;6.73;;;3.40;;
9842;SDS011;4960;48.736;9.108;2022-10-04T16:57:44;5.40;;;2.73;;
9842;SDS011;4960;48.736;9.108;2022-10-04T17:03:10;6.57;;;2.80;;
9842;SDS011;4960;48.736;9.108;2022-10-04T17:05:43;3.37;;;2.63;;
9842;SDS011;4960;48.736;9.108;2022-10-04T17:08:23;6.00;;;3.10;;
9842;SDS011;4960;48.736;9.108;2022-10-04T17:13:51;5.03;;;2.93;;
9842;SDS011;4960;48.736;9.108;2022-10-04T17:16:20;8.00;;;3.53;;
9842;SDS011;4960;48.736;9.108;2022-10-04T17:18:49;5.73;;;3.20;;
9842;SDS011;4960;48.736;9.108;2022-10-04T17:21:22;7.27;;;3.63;;
9842;SDS011;4960;48.736;9.108;2022-10-04T17:23:58;6.83;;;3.30;;
9842;SDS011;4960;48.736;9.108;2022-10-04T17:26:46;9.00;;;3.70;;
9842;SDS011;4960;48.736;9.108;2022-10-04T17:29:23;8.80;;;3.53;;
9842;SDS011;4960;48.736;9.108;2022-10-04T17:31:56;6.77;;;3.87;;
9842;SDS011;4960;48.736;9.108;2022-10-04T17:34:29;7.90;;;3.83;;
9842;SDS011;4960;48.736;9.108;2022-10-04T17:37:00;5.63;;;3.47;;
9842;SDS011;4960;48.736;9.108;2022-10-04T17:39:40;6.37;;;3.93;;
9842;SDS011;4960;48.736;9.108;2022-10-04T17:45:00;5.37;;;3.57;;
9842;SDS011;4960;48.736;9.108;2022-10-04T17:47:32;8.03;;;4.03;;
9842;SDS011;4960;48.736;9.108;2022-10-04T17:50:01;8.93;;;4.40;;
9842;SDS011;4960;48.736;9.108;2022-10-04T17:53:02;7.70;;;5.23;;
9842;SDS011;4960;48.736;9.108;2022-10-04T17:55:50;9.97;;;6.10;;
9842;SDS011;4960;48.736;9.108;2022-10-04T17:58:21;12.57;;;6.50;;
9842;SDS011;4960;48.736;9.108;2022-10-04T18:00:56;9.37;;;7.40;;
9842;SDS011;4960;48.736;9.108;2022-10-04T18:03:25;9.73;;;6.97;;
9842;SDS011;4960;48.736;9.108;2022-10-04T18:05:59;9.23;;;6.30;;
9842;SDS011;4960;48.736;9.108;2022-10-04T18:08:37;8.37;;;6.00;;
9842;SDS011;4960;48.736;9.108;2022-10-04T18:11:12;8.80;;;5.80;;
9842;SDS011;4960;48.736;9.108;2022-10-04T18:13:42;8.00;;;5.77;;
9842;SDS011;4960;48.736;9.108;2022-10-04T18:16:14;9.57;;;5.33;;
9842;SDS011;4960;48.736;9.108;2022-10-04T18:18:42;9.50;;;5.73;;
9842;SDS011;4960;48.736;9.108;2022-10-04T18:21:20;9.10;;;5.30;;
9842;SDS011;4960;48.736;9.108;2022-10-04T18:23:51;8.90;;;5.00;;
9842;SDS011;4960;48.736;9.108;2022-10-04T18:26:20;10.40;;;5.73;;
9842;SDS011;4960;48.736;9.108;2022-10-04T18:28:49;8.73;;;4.83;;
9842;SDS011;4960;48.736;9.108;2022-10-04T18:31:19;8.40;;;5.43;;